Timeline UpdatesTrip UpdatesNews PostsPvt Posts♥♥Travel TipsAdmin PostsConv PostsFollowed PostsChat RequestsBlog PostsPNR Posts

Disclaimer
Search
 
 
Thu Nov 27, 2014 19:55:55 ISTHomeTrainsΣChainsAtlasPNRForumGalleryNewsFAQTripsMembersLoginFeedback
No Recent News for this Train
Other Trains in the News **new
Latest...
MST holders permitted to travel in IInd class general coaches between Bhatinda-Rohtak-Delhi
Sun Nov 23, 2014 (08:03PM)
⇐ Return Journey: Train# 19023

19024/Firozpur - Mumbai Central Janta Express

Time-Table HAS CHANGED.
Nov 23 (8:03PM)
Change Departure Station:
Change Arrival Station:
Post a Train Travel TipPost a Train Travel Tip **new
Post a Comment/Question/Picture/VideoPost a Comment/Question/Picture/Video
Inaugural Run
Mon Oct 01, 1956
Pantry/Catering
✕ NO Pantry Car
✓ Catering Avbl
Catering from local vendors
RSA - Rake Sharing
Dedicated Rake.No RSA
Rake/Coach Composition
LOCO<SLR,GS,GS(MST),GS,S-1, S-2, S-3, S-4, S-5, S-6, S-7, S-8,GS,SLR,HCPV=14+1
Loco
TKD WDP-4/4B between FZR-NDLS, GZB WAP5 between NDLS-BCT
News    PNR    Forum    Time-Table    Availability    Fare Chart    Map    Arr/Dep History    Trips    Gallery    ΣChains    X/O    Timeline    
Travel Time: 7h 48m    22 halts    Distance: 316 km    Avg Speed: 40 km/hr
Type: Mail/Express
Zone: WR/Western
Departs @ 11:58 (Avg 23m late)
Platform# 2
SMTWTFS
Bharuch Junction/BH 
Arrives @ 19:46 (Avg 2m late)
Platform# 5
SMTWTFS
Mumbai Dadar Western/DDR 

22 halts. 65 intermediate Stations between Bharuch Junction and Mumbai Dadar Western

Show ALL intermediate Stations  Show Old Time-Table

#TrkCodeStation NameX/OArrivesAvgDepartsAvgHaltPFDay#KmSpeedElevZoneAddress
1|--|FZRFirozpur Cantt. Junction (5)  -05:10 05:05+1411-1450.777200mNRFirozpur Cantt 152001, Punjab
2|--|FDKFaridkot (3)  05:34 05:30+2105:36 05:32+212m11-1418.548202mNRFaridkot, Punjab
3|--|KKPKot Kapura Junction (3)  05:50 05:48+2005:52 05:50+212m11-1405.7750mNRKotkapura, Punjab
4|--|GJUTGangsar Jaitu (3)  06:07 06:03+2206:09 06:05+222m11-1389.447207mNRJaitu, Punjab
5|--|GNAGoneana Bhai Jagta (3)X  06:23+1806:25+192m11-1375.334206mNRGoniana, Punjab
6|--|BTIBathinda Junction (6)  06:55 06:47+1407:05 07:00+1410 13m21-1363.089208mNRBathinda, Punjab
7!==!MAURMaur  07:31 07:24+2907:33 07:26+292m--1-1327.467220mNRMaur Mandi, Punjab
8!==!KTKLKotli Kalan  07:39 07:35-07:41 07:36-2 1m--1-1317.327219mNRState Highway 12A, Punjab
9!==!MSZMansa  07:54 07:55+2107:56 07:57+212m--1-1308.781222mNRMansa, Punjab
10!==!BLZBudhlada  08:09+2608:11+262m--1-1292.671223mNRBudhlada, Punjab
11!==!BRZBareta  08:24+2708:26+272m--1-1277.257223mNRBareta, Punjab
12!==!JHLJakhal Junction  08:43 08:41+2608:45 08:43+272m--1-1263.056225mNRJakhal, Haryana
13|==|TUNTohana (2)  08:56+2808:58+282m--1-1250.876232mNRTohana, Haryana
14|==|NRWNarwana Junction (4)X  09:18+2609:20+262m--1-1225.370235mNRKKDE, Haryana
15|==|UCAUchana  09:33+2609:35+262m--1-1210.145225mNRDistrict Jind, Haryana
16|==|JINDJind Junction (3)  10:00+2310:05+225m--1-1191.481222mNRJind 126102, Haryana
17|==|JNAJulana  10:27 10:24+2710:29 10:26+272m--1-1165.865226mNRJulana, Haryana
18|==|ROKRohtak Junction (3)  11:05 10:55+3011:08 11:00+283 5m--1-1134.381220mNRRohtak, Haryana
19/==/ISMIsmaila Haryana  11:26 11:14-11:28 11:16-2m--1-1115.542221mNRNational Highway 10, Haryana
20/==/SPZSampla  11:32 11:21+3111:34 11:23+312m--1-1112.072222mNRSampla, Haryana
21/==/BGZBahadurgarhX  11:49 11:38+3311:51 11:40+332m--1-1094.158220mNRBahadurgarh, Haryana
22/==/NNONangloi  12:03 11:53+3712:05 11:55+402m--1-1081.628219mNRJJ Colony No 1, Delhi NCT
23/==/MGLPMangolpuri  12:09 12:02+1812:11 12:04+182m--1-1078.421217mNROutter Ring Rd, Delhi NCT
24/==/SSBShakur BastiX  12:21 12:16+3112:23 12:18+332m--1-1074.132216mNRPitampura, Delhi NCT
25/==/DKZDelhi KishanGanj (2)  12:36 12:31+4012:38 12:33+402m--1-1067.211220mNRSarai Rohilla, Delhi NCT
26/==/NDLSNew Delhi (16)XO13:05 12:55+4213:35 13:25+4230m71-1063.325215mNRNew Delhi 110002, Delhi NCT
27/==/NZMDelhi Hazrat Nizamuddin (7)O  13:49 13:43+4413:51 13:45+452m11-1055.932209mNRNew Delhi 110013, Delhi NCT
28/==/OKAOkhla (4)  13:57 13:52+4413:59 13:53+442 1m--1-1052.260221mNRIshwar Nagar Mathura Road, Delhi NCT
29/==/TKDTuglakabad (2)XO  14:06 13:59+4814:08 14:01+482m11-1046.244213mNRNear Tughlakabad Metro Station, Delhi NCT
30/==/FDBFaridabad (4)  14:23 14:16+4314:25 14:18+442m31-1035.144206mNRold Faridabad, Haryana
31/==/BVHBallabgarh (5)  14:43 14:29+4914:45 14:31+482m--1-1027.027203mNRFaridabad, Haryana
32/==/PWLPalwal (8)O  15:18+2215:20+232m--1-1005.985200mNRPalwal, Haryana
33/==/KSVKosi Kalan (3)  15:50+4915:52+532m21-963.447189mNCRKosi Kalan, Uttar Pradesh
34/==/CHJChata (4)X  16:03 16:05+5116:05 16:07+522m--1-953.135187mNCRChhata, Uttar Pradesh
35/==/MTJMathura Junction (10)  17:00+3417:05+395m31-921.980179mNCRMathura, Uttar Pradesh
36/==/BTEBharatpur Junction (5)O  17:30+4917:35+495m31-888.472174mWCRBharatpur, Rajasthan
37/==/BXNBayana Junction (3)X  18:10+4818:15+485m--1-846.491198mWCRBayana, Rajasthan
38/==/FSPFateh SinghpuraX  18:28+5118:30+532m--1-826.844223mWCRState Highway 1, Rajasthan
39/==/HANHindaun City (2)  18:48+4918:50+552m--1-813.561230mWCRKarauli, Rajasthan
40/==/SMBJShri Mahabirji (3)X  19:00+5419:02+542m--1-803.454240mWCRKarauli, Rajasthan
41/==/GGCGangapur City (3)  19:50 19:40+4619:55 19:45+515m21-769.368270mWCRGangapur, Rajasthan
42/==/NNWNarayanpur Tatwara (2)  20:11 20:00+5520:12 20:02+551 2m--1-752.363256mWCRSawai Madhopur, Rajasthan
43/==/MLZMalarnaXO  20:40 20:18+5220:42 20:20+532m21-735.540236mWCRSawai Madhopur, Rajasthan
44/==/SWMSawai Madhopur Junction (4)  21:05+3821:10+435m21-705.478266mWCRSawai Madhopur, Rajasthan
45/==/IDGIndargarh Sumerganj Mandi (2)  21:35 21:38+4621:37 21:40+482m--1-669.166247mWCRIndargarh, Rajasthan
46/==/LKELakheri (3)X  21:47 21:50+4921:49 21:52+512m--1-658.144228mWCRBundi, Rajasthan
47/==/KOTAKota Junction (5)  23:10 23:15+5923:20+1:0510 5m21-597.568256mWCRKota, Rajasthan
48/==/RMARamganj Mandi Junction (3)X  00:23+1:0100:25+1:042m--2-526.357358mWCRRamganj Mandi, Rajasthan
49/==/JHWJhalawar Road (3)XO  00:38+1:0300:40+1:042m--2-513.930361mWCRJhalawar City, Rajasthan
50/==/BWMBhawani Mandi (3)X  01:13+4601:15+502m--2-497.474384mWCRBhawani Mandi, Madhya Pradesh
51/==/SGZShamgarh (3)  01:42+5001:47+505m--2-463.950463mWCRMandsaur, Madhya Pradesh
52/==/SVASuwasra (2)O  02:03+4602:05+472m--2-450.540450mWCRSuwasra, Madhya Pradesh
53/==/CMUChau Mahla (3)  02:28+3702:30+402m12-435.120426mWCRJhalawar, Rajasthan
54/==/VMAVikramgarh Alot (2)X  03:36+503:38+82m12-413.340443mWCRKota Division, Madhya Pradesh
55/==/MEPMahidpur RoadX  04:13 04:14+004:15+52 1m--2-389.441493mWCRGogapur, Madhya Pradesh
56/==/NADNagda Junction (4)X  04:40+204:45+75m--2-372.464468mWRNagda, Madhya Pradesh
57/==/KUHKhachrod (2)X  04:56 04:58+904:58 05:00+102m--2-358.637497mWRUjjain, Madhya Pradesh
58/==/RTMRatlam Junction (7)X  05:45+406:00+715m42-330.973495mWRRatlam 457001, Madhya Pradesh
59/==/BMIBamnia (2)  06:35 06:37+1306:37 06:38+142 1m--2-286.272392mWRBamnia, Madhya Pradesh
60/==/THDRThandla Road (2)  06:59 07:01+1507:01 07:02+152 1m--2-258.660317mWRJhabua, Madhya Pradesh
61/==/MGNMeghnagar (3)  07:08 07:10+1507:10 07:12+152m--2-250.686317mWRJhabua, Madhya Pradesh
62/==/DHDDahod (3)X  07:35+2307:40+235m--2-217.568313mWRDahod, Gujarat
63/==/LMKLimkheda  08:07 08:09+2208:09 08:10+232 1m--2-184.660205mWRLimkheda, Gujarat
64/==/PPDPiplod Junction  08:16 08:18+2208:18 08:19+222 1m--2-176.679209mWRPiplod, Gujarat
65/==/SATSant Road (2)X  08:26 08:28+2308:28 08:29+232 1m22-164.820169mWROrwara, Gujarat
66/==/GDAGodhra Junction (3)X  09:29 09:30+009:34 09:35+35m12-144.479122mWRGodhra, Gujarat
67/==/DRLDerol  09:53+709:55+72m--2-120.87981mWRKalol, Gujarat
68/==/SMLASamlaya Junction (3)  10:13+710:15+62m--2-97.15367mWRVadodara, Gujarat
69/==/BRCVadodara Junction (7)X10:45+910:55+810m12-70.58936mWRVadodara 390005, Gujarat
70/==/MYGMiyagam Karjan (2)  11:15+1711:17+162m22-40.78329mWRKarjan, Gujarat
71/==/PLJPalej (4)  11:28+1711:30+172m--2-25.48029mWRPalej, Gujarat
72/==/NIUNabipur (3)X  11:40+2111:42+202m--2-12.15224mWRNabipur, Gujarat
73/==/BHBharuch Junction (5)»X  11:56+2111:58+232m220.06219mWRBharuch, Gujarat
74/==/AKVAnkleshwar Junction (4)O  12:07+1612:09+172m229.34819mWRAnkleshwar, Gujarat
75/==/PAOPanoli (3)  12:22+2012:24+192m--219.66229mWRPanoli, Gujarat
76/==/KSBKosamba Junction (3)XO  12:32+2212:34+222m2227.95830mWRKosamba, Gujarat
77/==/KIMKim (2)  12:42+1812:44+182m--235.73118mWRNH 8, Gujarat
78/==/STSurat (4)X  13:30+813:35+85m2259.37119mWRSurat 395001, Gujarat
79/==/MRLMaroli (3)O  13:53+1613:55+182m2280.44615mWRMaroli, Gujarat
80/==/NVSNavsari (3)  14:06+1514:08+172m2288.95514mWRNavsari, Gujarat
81/==/AMLAmalsad (3)O  14:25+1514:27+162m22104.53712mWRAmalsad, Gujarat
82/==/BIMBilimora Junction (4)XO  14:36+1414:38+152m22110.13611mWRBilimora, Gujarat
83/==/BLValsad (3)X  15:08+915:10+152m32128.04915mWRValsad, Gujarat
84/==/PADPardi (3)X  15:24 15:23+1415:26 15:25+132m--2138.74519mWRValsad, Gujarat
85/==/UVDUdvada (3)  15:33+1215:35+122m--2144.65218mWRUdvada, Gujarat
86/==/VAPIVapi (3)X  15:46+1015:48+192m22154.23427mWRVapi, Gujarat
87/==/BLDBhilad (3)XO  16:08+1416:10+142m--2165.56933mWRBhilad, Gujarat
88/==/SJNSanjan (3)XO  16:20+1516:22+152m--2177.15422mWRSanjan, Gujarat
89/==/UBRUmbargam Road (3)X  16:28+1616:30+162m--2182.44730mWRUmbergaon, Gujarat
90/==/DRDDahanu Road (5)XO  16:56+816:58+92m--2202.77412mWRDahanu, Maharashtra
91/==/VGNVangaon (3)XO  17:08+1017:10+92m--2215.07111mWRDist. Palghar, Maharashtra
92/==/BORBoisar (3)XO  17:18+917:20+92m32224.56117mWRBoisar Tel.no-02525-266626, Maharashtra
93/==/PLGPalghar (3)XO  17:31+817:33+82m22235.75719mWRPalghar, Maharashtra
94/==/VRVirar (8)XO  18:06+318:08+62m42266.9526mWRDist. Palghar, Maharashtra
95/==/BVIMumbai Borivali (8)  18:38+118:40+52m52292.72219mWRMumbai - 400092, Maharashtra
96/==/DDRMumbai Dadar Western (6)•  19:46+219:48+32m52316.4166mWRMumbai, Maharashtra
97/==/BCTMumbai Central (9)  20:10+0-52322.4-3mWRMumbai 400008, Maharashtra
Scroll to Top
Scroll to Bottom